American Fork, Utah
Current Conditions -  °F | °C
As of 4:53 PM on Friday 24 Oct 2014 (Local Time) from KPVU Reporting Station
Clear Clear  
Wind Chill: 79°   Ceiling: Unl
Heat Index: 79°   Visibility: 15mi
Dew Point: 28°   Wind: 0mph
Humidity: 16%   Direction: NA
Pressure: 30.12"   Gusts: NA
Location:  40.38°N, 111.79°W
Report Text: KPVU 242253Z 00000KT 15SM SKC 26/M02 A3012
Loading
Personal Weather Stations






























Interactive Weather Map
Tropical Storm Tracking
New forecast layout! Learn more

10-Day Weather Forecast

Advertisements
Track Severe Weather on mobile